Darstellungsparameter: Aktuell verwendete Einstellungen:
Skalierung der Graphiken ... ?
xyx+y,   Skalierungsfaktor:      Skalierung: Modus: x, Faktor: 1
Darstellungszeitraum ... ?
Vom - - bis: - -   Zeitraum: 15.05.2005 - 15.05.2005
Min/Max/Avg-Anzeige ... ?
Zeige MMA aktuell
Zeige MMA Monat
Zeige MMA alles
Zeige --A aktuell
Zeige --A Monat
Zeige --A alles
Keine MMA-Anzeige
MMA:
Minimum Maximum Average (ber die Originaldaten)
MMA-Basis: 15.05.2005 - 15.05.2005
Quicknavigation für Darstellung... ?
Tage:      1T, 2T, 3T, 5T -1T -2T -3T -5T +1T +2T +3T +5T
Wochen: 1W, 2W, 3W -1W -2W -3W +1W +2W +3W
Monate: 1M, 3M, 6M -1M -3M -6M +1M +3M +6M
Jahre:    1J, 3J, 5J, 10J -1J -3J -5J -10J +1J +3J +5J +10J
Nutze für die Darstellung ... ?
Originaldaten oder Mittelwerte auf ...
Stundenbasis Tagesbasis Wochenbasis
Monatsbasis Jahresbasis      Datenbasis: Original-Daten
Darstellen als:
Statistik (Auto) Statistik J:M      Darstellung:
Zur Graphik,    zurück zur Übersicht aller Sensoren.
 
Tabellarische Datenbersicht: ?
 
Sensor: Nr:Datum:Temp:Abs-Feuchte:Windchill:Wind:
Aussen-T/F 1 15-05-2005 00:11:02 10.4 C 9.06 g/m*3 10.4 C 0 km/h
2 15-05-2005 00:23:02 10.4 C 9.06 g/m*3 10.4 C 0 km/h
3 15-05-2005 00:35:01 10.3 C 8.91 g/m*3 10.3 C 0 km/h
4 15-05-2005 00:47:03 10.2 C 8.85 g/m*3 10.2 C 0 km/h
5 15-05-2005 00:59:03 10.1 C 8.7 g/m*3 10.1 C 0 km/h
6 15-05-2005 01:11:03 9.9 C 8.59 g/m*3 9.9 C 0 km/h
7 15-05-2005 01:23:02 9.8 C 8.44 g/m*3 9.8 C 0 km/h
8 15-05-2005 01:35:03 9.9 C 8.31 g/m*3 9.9 C 0 km/h
9 15-05-2005 01:47:02 9.9 C 8.31 g/m*3 9.9 C 0 km/h
10 15-05-2005 01:59:02 9.7 C 8.2 g/m*3 9.7 C 0 km/h
11 15-05-2005 02:11:02 9.7 C 8.3 g/m*3 9.7 C 0 km/h
12 15-05-2005 02:23:02 9.7 C 8.3 g/m*3 9.7 C 0 km/h
13 15-05-2005 02:35:01 9.6 C 8.34 g/m*3 9.6 C 0 km/h
14 15-05-2005 02:48:03 9.5 C 8.28 g/m*3 9.5 C 0 km/h
15 15-05-2005 03:00:03 9.5 C 8.37 g/m*3 9.5 C 0 km/h
16 15-05-2005 03:12:03 9.3 C 8.27 g/m*3 9.3 C 0 km/h
17 15-05-2005 03:24:03 9.2 C 8.22 g/m*3 9.2 C 0 km/h
18 15-05-2005 03:36:02 9.2 C 8.3 g/m*3 9.2 C 0 km/h
19 15-05-2005 03:48:02 9.1 C 8.25 g/m*3 9.1 C 0 km/h
20 15-05-2005 04:00:02 9 C 8.2 g/m*3 9 C 0 km/h
21 15-05-2005 04:12:02 9 C 8.2 g/m*3 9 C 0 km/h
22 15-05-2005 04:24:01 9 C 8.2 g/m*3 9 C 0 km/h
23 15-05-2005 04:36:01 9 C 8.2 g/m*3 9 C 0 km/h
24 15-05-2005 04:48:02 8.9 C 8.23 g/m*3 8.9 C 0 km/h
25 15-05-2005 05:00:02 8.7 C 8.13 g/m*3 8.7 C 0 km/h
Sensor: Nr:Datum:Temp:Abs-Feuchte:Windchill:Wind:
Aussen-T/F 26 15-05-2005 05:12:02 8.3 C 7.92 g/m*3 8.3 C 0 km/h
27 15-05-2005 05:24:02 8.1 C 7.74 g/m*3 8.1 C 0 km/h
28 15-05-2005 05:36:03 8.2 C 7.79 g/m*3 8.2 C 0 km/h
29 15-05-2005 05:48:01 8.1 C 7.74 g/m*3 8.1 C 0 km/h
30 15-05-2005 06:00:01 8.2 C 7.79 g/m*3 8.2 C 0 km/h
31 15-05-2005 06:12:01 8.1 C 7.74 g/m*3 8.1 C 0 km/h
32 15-05-2005 06:24:02 8.2 C 7.7 g/m*3 8.2 C 0 km/h
33 15-05-2005 06:36:02 8.1 C 7.57 g/m*3 8.1 C 0 km/h
34 15-05-2005 06:48:01 8.2 C 7.54 g/m*3 8.2 C 0 km/h
35 15-05-2005 07:00:01 8.2 C 7.54 g/m*3 8.2 C 0 km/h
36 15-05-2005 07:12:02 8.4 C 7.55 g/m*3 8.4 C 0 km/h
37 15-05-2005 07:24:01 8.6 C 7.73 g/m*3 8.6 C 0 km/h
38 15-05-2005 07:36:01 8.9 C 7.88 g/m*3 8.9 C 0 km/h
39 15-05-2005 07:48:01 8.7 C 7.61 g/m*3 8.7 C 0 km/h
40 15-05-2005 08:00:01 8.8 C 7.4 g/m*3 8.8 C 0 km/h
41 15-05-2005 08:12:01 8.7 C 7.26 g/m*3 8.7 C 0 km/h
42 15-05-2005 08:24:01 8.5 C 6.49 g/m*3 8.5 C 0 km/h
43 15-05-2005 08:36:01 8.7 C 6.57 g/m*3 8.7 C 0 km/h
44 15-05-2005 08:48:02 9.1 C 6.57 g/m*3 9.1 C 0 km/h
45 15-05-2005 09:00:02 9.5 C 6.55 g/m*3 9.5 C 0 km/h
46 15-05-2005 09:12:02 9.7 C 6.45 g/m*3 9.7 C 0 km/h
47 15-05-2005 09:24:02 9.9 C 6.16 g/m*3 9.9 C 0 km/h
48 15-05-2005 09:36:02 9.9 C 6.16 g/m*3 9.9 C 0 km/h
49 15-05-2005 09:48:02 10.2 C 6 g/m*3 10.2 C 0 km/h
50 15-05-2005 10:00:02 10.5 C 5.82 g/m*3 10.5 C 0 km/h
Sensor: Nr:Datum:Temp:Abs-Feuchte:Windchill:Wind:
Aussen-T/F 51 15-05-2005 10:12:02 10.7 C 6.09 g/m*3 10.7 C 0 km/h
52 15-05-2005 10:24:02 11.6 C 5.92 g/m*3 11.6 C 0 km/h
53 15-05-2005 10:36:02 12 C 6.18 g/m*3 12 C 0 km/h
54 15-05-2005 10:48:02 11.9 C 5.93 g/m*3 11.9 C 0 km/h
55 15-05-2005 11:00:02 12 C 5.86 g/m*3 12 C 0 km/h
56 15-05-2005 11:12:02 12.6 C 5.86 g/m*3 12.6 C 0 km/h
57 15-05-2005 11:24:02 12.5 C 5.61 g/m*3 12.5 C 0 km/h
58 15-05-2005 11:36:02 13.9 C 5.75 g/m*3 13.9 C 0 km/h
59 15-05-2005 11:48:02 13.4 C 5.7 g/m*3 13.4 C 0 km/h
60 15-05-2005 12:00:02 13.5 C 5.26 g/m*3 13.5 C 0 km/h
61 15-05-2005 12:12:02 13.3 C 4.97 g/m*3 13.3 C 0 km/h
62 15-05-2005 12:24:02 12.5 C 4.84 g/m*3 12.5 C 0 km/h
63 15-05-2005 12:36:02 12.3 C 4.89 g/m*3 12.3 C 0 km/h
64 15-05-2005 12:48:03 12.1 C 4.83 g/m*3 12.1 C 0 km/h
65 15-05-2005 13:00:03 12.1 C 4.72 g/m*3 12.1 C 0 km/h
66 15-05-2005 13:12:03 12.4 C 5.03 g/m*3 12.4 C 0 km/h
67 15-05-2005 13:24:04 12.2 C 5.07 g/m*3 12.2 C 0 km/h
68 15-05-2005 13:36:05 12.1 C 5.15 g/m*3 12.1 C 0 km/h
69 15-05-2005 13:48:02 12.2 C 5.18 g/m*3 12.2 C 0 km/h
70 15-05-2005 14:00:02 12.1 C 5.47 g/m*3 12.1 C 0 km/h
71 15-05-2005 14:12:02 12 C 5.54 g/m*3 12 C 0 km/h
72 15-05-2005 14:24:02 12 C 5.65 g/m*3 12 C 0 km/h
73 15-05-2005 14:36:02 11.8 C 5.79 g/m*3 11.8 C 0 km/h
74 15-05-2005 14:48:02 11.8 C 5.89 g/m*3 11.8 C 0 km/h
75 15-05-2005 15:00:02 11.9 C 5.93 g/m*3 11.9 C 0 km/h
Sensor: Nr:Datum:Temp:Abs-Feuchte:Windchill:Wind:
Aussen-T/F 76 15-05-2005 15:12:02 12.2 C 5.94 g/m*3 12.2 C 0 km/h
77 15-05-2005 15:24:02 12.7 C 6.12 g/m*3 12.7 C 0 km/h
78 15-05-2005 15:36:02 12.7 C 6.12 g/m*3 12.7 C 0 km/h
79 15-05-2005 15:48:02 13 C 6.01 g/m*3 13 C 0 km/h
80 15-05-2005 16:00:02 13.3 C 6.12 g/m*3 13.3 C 0 km/h
81 15-05-2005 16:12:02 13.6 C 6.12 g/m*3 13.6 C 0 km/h
82 15-05-2005 16:24:03 13.2 C 5.97 g/m*3 13.2 C 0 km/h
83 15-05-2005 16:36:03 12.6 C 6.2 g/m*3 12.6 C 0 km/h
84 15-05-2005 16:48:01 12.5 C 6.27 g/m*3 12.5 C 0 km/h
85 15-05-2005 17:00:01 12.4 C 6.45 g/m*3 12.4 C 0 km/h
86 15-05-2005 17:12:02 12.3 C 6.41 g/m*3 12.3 C 0 km/h
87 15-05-2005 17:24:01 12.4 C 6.45 g/m*3 12.4 C 0 km/h
88 15-05-2005 17:36:01 12.6 C 6.42 g/m*3 12.6 C 0 km/h
89 15-05-2005 17:48:02 13 C 6.46 g/m*3 13 C 0 km/h
90 15-05-2005 18:00:02 12.8 C 6.5 g/m*3 12.8 C 0 km/h
91 15-05-2005 18:12:02 12.8 C 6.61 g/m*3 12.8 C 0 km/h
92 15-05-2005 18:24:02 12.6 C 6.75 g/m*3 12.6 C 0 km/h
93 15-05-2005 18:36:02 12.6 C 6.86 g/m*3 12.6 C 0 km/h
94 15-05-2005 18:48:02 12.7 C 6.79 g/m*3 12.7 C 0 km/h
95 15-05-2005 19:00:02 12.9 C 6.88 g/m*3 12.9 C 0 km/h
96 15-05-2005 19:12:03 12.6 C 6.75 g/m*3 12.6 C 0 km/h
97 15-05-2005 19:24:02 12.6 C 6.75 g/m*3 12.6 C 0 km/h
98 15-05-2005 19:36:03 12.5 C 6.71 g/m*3 12.5 C 0 km/h
99 15-05-2005 19:48:03 12.6 C 6.86 g/m*3 12.6 C 0 km/h
100 15-05-2005 20:00:03 12.7 C 7.01 g/m*3 12.7 C 0 km/h
Sensor: Nr:Datum:Temp:Abs-Feuchte:Windchill:Wind:
Aussen-T/F 101 15-05-2005 20:12:05 12.6 C 7.08 g/m*3 12.6 C 0 km/h
102 15-05-2005 20:24:03 12.5 C 7.26 g/m*3 12.5 C 0 km/h
103 15-05-2005 20:36:04 12 C 7.25 g/m*3 12 C 0 km/h
104 15-05-2005 20:48:02 11.2 C 7.1 g/m*3 11.2 C 0 km/h
105 15-05-2005 21:00:03 10.6 C 7.22 g/m*3 10.6 C 0 km/h
106 15-05-2005 21:12:02 10 C 7.05 g/m*3 10 C 0 km/h
107 15-05-2005 21:24:02 9.6 C 7.15 g/m*3 9.6 C 0 km/h
108 15-05-2005 21:36:01 9.3 C 7.1 g/m*3 9.3 C 0 km/h
109 15-05-2005 21:48:04 9.2 C 7.14 g/m*3 9.2 C 0 km/h
110 15-05-2005 22:00:04 9 C 7.14 g/m*3 9 C 0 km/h
111 15-05-2005 22:12:02 8.6 C 7.13 g/m*3 8.6 C 0 km/h
112 15-05-2005 22:24:03 8.4 C 7.13 g/m*3 8.4 C 0 km/h
113 15-05-2005 22:36:04 8.5 C 7.26 g/m*3 8.5 C 0 km/h
114 15-05-2005 22:48:03 8.2 C 7.2 g/m*3 8.2 C 0 km/h
115 15-05-2005 23:00:03 8.2 C 7.29 g/m*3 8.2 C 0 km/h
116 15-05-2005 23:12:03 8 C 7.19 g/m*3 8 C 0 km/h
117 15-05-2005 23:24:02 7.8 C 7.18 g/m*3 7.8 C 0 km/h
118 15-05-2005 23:36:02 7.7 C 7.14 g/m*3 7.7 C 0 km/h
119 15-05-2005 23:48:02 7.8 C 7.26 g/m*3 7.8 C 0 km/h

Legende:
   Min
   Max


Maximal/Minimal-Werte vom 15.05.2005 - 15.05.2005

Sensor Min Max Avg
Temp
(Aussen-T/F)
7.7 °C
15-05-2005  23:36:02
13.9 °C
15-05-2005  11:36:02
10.61 °C
Abs-Feuchte
(Aussen-T/F)
4.72 g/m*3
15-05-2005  13:00:03
9.06 g/m*3
15-05-2005  00:11:02
6.87 g/m*3
Windchill
(Aussen-T/F)
7.7 C
15-05-2005  23:36:02
13.9 C
15-05-2005  11:36:02
10.52 C

Die Daten stammen von einer Davis Vantage Pro 2 Wetter-Station und werden unter Linux mit der Software wview2wettercgi und aufbereitet. Alle Angaben erfolgen ohne Gewähr für ihre Vollständigkeit oder Richtigkeit.
Kontakt: Rainer Krienke krienke@uni-koblenz.de . Meine Webseiten an der Uni Koblenz oder privat.
Version: $Revision: 0.78 $